Niles Valley, Pennsylvania
Current Conditions -  °F | °C
As of 11:55 PM on Thursday 30 Oct 2014 (Local Time) from KN38 Reporting Station
Overcast Overcast  
Wind Chill: 39°   Ceiling: 4000
Heat Index: 39°   Visibility: 10mi
Dew Point: 32°   Wind: 0mph
Humidity: 75%   Direction: NA
Pressure: 30.03"   Gusts: NA
Location:  41.8913°N, 77.3093°W
Report Text: KN38 310355Z AUTO 00000KT 10SM OVC040 04/00 A3003 RMK AO2
Loading
Personal Weather Stations






























Interactive Weather Map
Tropical Storm Tracking
New forecast layout! Learn more

10-Day Weather Forecast

Advertisements
Track Severe Weather on mobile